Time;durP1;ratioP1;P1;durP2;ratioP2;P2;SDS_P1;SDS_P2;PMS_P1;PMS_P2;Temp;Humidity;BMP_temperature;BMP_pressure;BME280_temperature;BME280_humidity;BME280_pressure;Samples;Min_cycle;Max_cycle;Signal;HPM_P1;HPM_P2
2024/01/30 00:38:57;;;;;;;;;;;;;;;2.01;50.90;101629.88;5923349;22;19929;-84
2024/01/30 02:48:24;;;;;;;;;;;;;;;3.35;48.59;101717.19;5074984;23;19910;-86
2024/01/30 05:29:01;;;;;;;;;;;;;;;3.37;49.30;101718.81;5218292;23;19910;-85
2024/01/30 05:31:56;;;;;;;;;;;;;;;3.42;49.71;101718.56;5036001;23;19934;-84
2024/01/30 06:50:47;;;;;;;;;;;;;;;3.47;50.45;101724.41;5253208;23;19934;-85
2024/01/30 07:34:56;;;;;;;;;;;;;;;3.55;50.77;101734.44;6018023;23;19905;-85
2024/01/30 08:30:54;;;;;;;;;;;;;;;3.55;53.41;101774.47;5602905;22;19933;-83
2024/01/30 08:49:47;;;;;;;;;;;;;;;3.65;53.82;101777.47;5297418;23;19909;-85
2024/01/30 09:08:34;;;;;;;;;;;;;;;3.89;52.61;101750.09;5600338;23;19909;-85
2024/01/30 09:11:34;;;;;;;;;;;;;;;3.91;51.83;101748.22;5019634;28;19916;-85
2024/01/30 09:14:20;;;;;;;;;;;;;;;3.92;52.17;101743.84;4941325;29;19938;-85
2024/01/30 09:20:25;;;;;;;;;;;;;;;3.90;51.40;101743.94;5057450;22;19914;-87
2024/01/30 09:26:17;;;;;;;;;;;;;;;3.96;51.84;101729.69;4960505;28;19949;-86
2024/01/30 09:29:18;;;;;;;;;;;;;;;4.05;51.00;101730.03;4912461;28;19949;-84
2024/01/30 09:32:20;;;;;;;;;;;;;;;4.01;50.91;101735.50;4875704;29;19916;-85
2024/01/30 09:35:30;;;;;;;;;;;;;;;3.99;51.26;101734.75;4884670;29;19908;-85
2024/01/30 09:41:11;;;;;;;;;;;;;;;3.96;51.06;101730.53;4832324;26;19921;-87
2024/01/30 09:44:10;;;;;;;;;;;;;;;3.95;50.87;101715.78;4983275;28;19906;-85
2024/01/30 09:53:27;;;;;;;;;;;;;;;4.13;50.46;101706.09;4985959;28;19914;-86
2024/01/30 09:55:55;;;;;;;;;;;;;;;4.11;50.70;101710.56;5059756;23;19953;-88
2024/01/30 10:01:18;;;;;;;;;;;;;;;4.25;50.36;101707.19;5194764;23;19977;-83
2024/01/30 10:07:03;;;;;;;;;;;;;;;4.34;50.45;101707.53;5020576;28;20057;-84
2024/01/30 10:10:11;;;;;;;;;;;;;;;4.31;50.25;101710.31;5007301;28;19906;-84
2024/01/30 10:22:39;;;;;;;;;;;;;;;4.40;49.76;101694.09;5002215;28;19917;-83
2024/01/30 10:25:17;;;;;;;;;;;;;;;4.44;49.74;101698.25;4995844;28;19922;-84
2024/01/30 10:28:04;;;;;;;;;;;;;;;4.40;49.87;101690.66;4970885;28;19930;-86
2024/01/30 10:33:54;;;;;;;;;;;;;;;4.51;49.53;101688.31;4949576;28;19933;-85
2024/01/30 10:36:46;;;;;;;;;;;;;;;4.46;49.40;101688.56;4973551;28;19997;-84
2024/01/30 10:39:14;;;;;;;;;;;;;;;4.53;48.85;101689.06;4979412;28;19926;-85
2024/01/30 10:44:42;;;;;;;;;;;;;;;4.58;48.30;101684.41;4990197;28;19968;-86
2024/01/30 10:47:27;;;;;;;;;;;;;;;4.55;48.01;101686.34;4974636;28;19914;-86
2024/01/30 10:50:03;;;;;;;;;;;;;;;4.66;48.31;101690.03;4976434;28;19934;-86
2024/01/30 10:52:44;;;;;;;;;;;;;;;4.58;48.00;101696.66;4980211;28;19941;-84
2024/01/30 10:55:12;;;;;;;;;;;;;;;4.63;47.79;101692.00;4959873;28;20021;-85
2024/01/30 10:57:58;;;;;;;;;;;;;;;4.71;47.37;101680.16;4934192;28;19945;-87
2024/01/30 11:00:40;;;;;;;;;;;;;;;4.69;47.14;101681.19;4959861;28;19930;-84
2024/01/30 11:03:07;;;;;;;;;;;;;;;4.74;47.11;101684.38;4960288;28;19977;-86
2024/01/30 11:05:33;;;;;;;;;;;;;;;4.68;47.07;101672.50;4961355;28;19986;-86
2024/01/30 11:07:58;;;;;;;;;;;;;;;4.72;47.08;101683.63;4943187;28;19918;-86
2024/01/30 11:10:24;;;;;;;;;;;;;;;4.81;47.48;101677.00;4945101;28;19914;-85
2024/01/30 11:12:51;;;;;;;;;;;;;;;4.79;47.15;101670.09;4960625;28;19918;-87
2024/01/30 11:15:17;;;;;;;;;;;;;;;4.88;47.33;101665.25;4958817;28;19918;-87
2024/01/30 11:17:43;;;;;;;;;;;;;;;4.88;46.79;101663.47;4957214;28;20391;-88
2024/01/30 11:20:45;;;;;;;;;;;;;;;4.86;46.79;101661.88;4944644;28;19923;-87
2024/01/30 11:23:11;;;;;;;;;;;;;;;4.81;46.97;101662.16;4938340;28;19954;-87
2024/01/30 11:25:37;;;;;;;;;;;;;;;4.85;46.60;101657.59;4938659;28;20013;-88
2024/01/30 11:28:02;;;;;;;;;;;;;;;4.93;47.36;101658.81;4952895;28;20431;-88
2024/01/30 11:30:29;;;;;;;;;;;;;;;4.93;46.77;101650.13;4948511;28;20009;-88
2024/01/30 11:35:58;;;;;;;;;;;;;;;4.92;46.60;101637.97;4952532;28;19972;-88
2024/01/30 11:38:25;;;;;;;;;;;;;;;5.01;46.92;101643.50;4940972;28;19958;-88
2024/01/30 11:40:51;;;;;;;;;;;;;;;4.95;46.11;101637.78;4950166;28;19918;-87
2024/01/30 11:43:17;;;;;;;;;;;;;;;4.89;46.87;101639.00;4952131;28;19918;-87
2024/01/30 11:45:43;;;;;;;;;;;;;;;4.92;46.35;101630.97;4935897;28;19930;-88
2024/01/30 11:48:10;;;;;;;;;;;;;;;4.87;46.03;101633.00;4943357;28;19946;-88
2024/01/30 11:50:39;;;;;;;;;;;;;;;4.90;46.08;101634.59;4936830;28;19922;-88
2024/01/30 11:53:04;;;;;;;;;;;;;;;4.86;46.39;101627.88;4935849;29;19963;-88
2024/01/30 11:55:30;;;;;;;;;;;;;;;4.89;46.22;101633.75;4941715;28;19961;-88
2024/01/30 11:57:56;;;;;;;;;;;;;;;4.89;46.34;101620.66;4935965;28;19986;-90
2024/01/30 12:00:22;;;;;;;;;;;;;;;4.94;46.95;101630.88;4937571;28;19973;-88
2024/01/30 12:03:12;;;;;;;;;;;;;;;4.97;46.36;101623.69;4934172;29;20025;-88
2024/01/30 12:05:43;;;;;;;;;;;;;;;5.00;47.08;101625.28;4948988;28;19927;-89
2024/01/30 12:08:14;;;;;;;;;;;;;;;4.90;46.35;101617.13;4954198;28;19922;-89
2024/01/30 12:10:39;;;;;;;;;;;;;;;4.97;46.63;101623.69;4955593;28;19918;-88
2024/01/30 12:13:04;;;;;;;;;;;;;;;4.97;46.83;101621.06;4959927;29;19930;-88
2024/01/30 12:15:30;;;;;;;;;;;;;;;5.07;46.70;101616.13;4944865;29;19974;-89
2024/01/30 12:18:03;;;;;;;;;;;;;;;5.16;46.44;101619.97;4935485;29;20400;-89
2024/01/30 12:20:29;;;;;;;;;;;;;;;5.13;45.97;101610.50;4954271;28;20420;-88
2024/01/30 12:22:55;;;;;;;;;;;;;;;5.13;45.96;101605.28;4939678;28;19972;-89
2024/01/30 12:25:20;;;;;;;;;;;;;;;5.15;45.77;101603.41;4973652;28;19926;-88
2024/01/30 12:27:46;;;;;;;;;;;;;;;5.19;45.92;101599.66;4945370;28;19997;-89
2024/01/30 12:30:15;;;;;;;;;;;;;;;5.16;46.23;101592.00;4936603;28;19950;-89
2024/01/30 12:32:44;;;;;;;;;;;;;;;5.29;45.53;101590.34;4954529;28;20384;-88
2024/01/30 12:35:10;;;;;;;;;;;;;;;5.21;45.82;101610.91;4937536;28;19915;-89
2024/01/30 12:37:35;;;;;;;;;;;;;;;5.22;45.50;101580.34;4957068;28;19925;-88
2024/01/30 12:40:01;;;;;;;;;;;;;;;5.23;45.27;101590.72;4965226;28;19919;-88
2024/01/30 12:42:27;;;;;;;;;;;;;;;5.22;45.15;101596.03;4946311;28;19911;-88
2024/01/30 12:44:52;;;;;;;;;;;;;;;5.25;45.83;101588.84;4964241;28;19976;-89
2024/01/30 12:47:18;;;;;;;;;;;;;;;5.23;45.55;101595.13;4958555;28;19914;-87
2024/01/30 12:49:44;;;;;;;;;;;;;;;5.14;44.69;101591.25;4940110;28;19918;-89
2024/01/30 12:52:10;;;;;;;;;;;;;;;5.17;45.24;101590.22;4973348;28;19914;-89
2024/01/30 12:54:35;;;;;;;;;;;;;;;5.16;45.08;101592.00;4966417;28;19914;-89
2024/01/30 12:57:00;;;;;;;;;;;;;;;5.15;45.19;101592.94;4946597;28;19946;-89
2024/01/30 12:59:26;;;;;;;;;;;;;;;5.11;45.07;101586.19;4954393;28;19996;-89
2024/01/30 13:01:51;;;;;;;;;;;;;;;5.07;44.92;101596.00;4969273;28;19969;-89
2024/01/30 13:04:16;;;;;;;;;;;;;;;5.07;45.72;101595.16;4953947;28;19918;-89
2024/01/30 13:06:42;;;;;;;;;;;;;;;5.10;44.81;101594.97;4954427;28;19918;-89
2024/01/30 13:09:07;;;;;;;;;;;;;;;5.15;44.95;101589.47;4954580;28;20403;-89
2024/01/30 13:11:32;;;;;;;;;;;;;;;5.15;45.09;101592.94;4963508;28;19985;-88
2024/01/30 13:13:58;;;;;;;;;;;;;;;5.15;45.05;101594.69;4944424;28;20030;-89
2024/01/30 13:16:23;;;;;;;;;;;;;;;5.18;45.24;101597.13;4953774;28;20005;-88
2024/01/30 13:18:48;;;;;;;;;;;;;;;5.03;45.27;101591.88;4933380;29;19978;-88
2024/01/30 13:21:14;;;;;;;;;;;;;;;5.09;45.49;101590.69;4933272;29;20355;-89
2024/01/30 13:23:39;;;;;;;;;;;;;;;5.04;45.75;101590.97;4933022;29;19921;-87
2024/01/30 13:26:04;;;;;;;;;;;;;;;5.05;45.64;101587.41;4943610;28;21705;-89
2024/01/30 13:28:30;;;;;;;;;;;;;;;5.11;45.57;101581.78;4939109;28;19965;-88
2024/01/30 13:30:55;;;;;;;;;;;;;;;5.15;45.56;101576.38;4937959;29;20293;-89
2024/01/30 13:33:20;;;;;;;;;;;;;;;5.14;45.45;101572.91;4956269;28;19915;-89
2024/01/30 13:35:46;;;;;;;;;;;;;;;5.19;45.29;101577.88;4952520;28;20323;-89
2024/01/30 13:38:11;;;;;;;;;;;;;;;5.14;44.80;101583.38;4956173;28;20008;-89
2024/01/30 13:40:36;;;;;;;;;;;;;;;5.11;45.72;101592.28;4947177;28;20066;-89
2024/01/30 13:43:02;;;;;;;;;;;;;;;5.07;45.67;101587.31;4947201;28;20417;-89
2024/01/30 13:45:27;;;;;;;;;;;;;;;4.96;45.70;101592.34;4955989;28;19925;-88
2024/01/30 13:47:52;;;;;;;;;;;;;;;4.88;44.72;101578.88;4956208;28;19918;-89
2024/01/30 13:50:18;;;;;;;;;;;;;;;4.88;44.95;101581.50;4951465;28;20010;-88
2024/01/30 13:55:27;;;;;;;;;;;;;;;4.86;45.85;101575.50;4954028;28;20006;-88
2024/01/30 13:57:52;;;;;;;;;;;;;;;4.90;45.60;101584.88;4956137;28;19997;-89
2024/01/30 14:00:17;;;;;;;;;;;;;;;4.87;44.95;101583.28;4946274;28;20498;-88
2024/01/30 14:02:43;;;;;;;;;;;;;;;4.83;45.18;101576.53;4944422;28;19998;-88
2024/01/30 14:05:08;;;;;;;;;;;;;;;4.89;45.85;101575.34;4955637;28;20029;-87
2024/01/30 14:07:35;;;;;;;;;;;;;;;4.93;45.44;101585.53;4951631;28;19919;-88
2024/01/30 14:10:01;;;;;;;;;;;;;;;4.98;45.44;101585.25;4937920;29;19915;-88
2024/01/30 14:12:26;;;;;;;;;;;;;;;4.93;45.43;101582.06;4936547;29;20316;-87
2024/01/30 14:14:51;;;;;;;;;;;;;;;4.98;45.32;101582.63;4944224;28;20380;-88
2024/01/30 14:17:16;;;;;;;;;;;;;;;5.00;45.53;101583.38;4954890;28;19925;-87
2024/01/30 14:19:42;;;;;;;;;;;;;;;5.02;45.71;101579.75;4954206;28;19922;-88
2024/01/30 14:22:08;;;;;;;;;;;;;;;5.05;45.31;101581.31;4966244;28;19918;-88
2024/01/30 14:24:33;;;;;;;;;;;;;;;5.08;45.22;101581.97;4952453;28;20403;-88
2024/01/30 14:26:59;;;;;;;;;;;;;;;5.03;45.32;101588.44;4939369;28;20408;-88
2024/01/30 14:29:24;;;;;;;;;;;;;;;5.03;45.27;101591.06;4941514;28;20376;-89
2024/01/30 14:31:50;;;;;;;;;;;;;;;5.07;45.61;101590.78;4955768;28;19922;-88
2024/01/30 14:34:15;;;;;;;;;;;;;;;5.07;45.14;101595.16;4958585;28;19918;-89
2024/01/30 14:36:40;;;;;;;;;;;;;;;5.03;45.10;101585.81;4942190;28;19925;-87
2024/01/30 14:39:06;;;;;;;;;;;;;;;5.01;45.79;101596.38;4939984;28;19918;-89
2024/01/30 14:41:32;;;;;;;;;;;;;;;5.01;44.89;101592.91;4952769;28;19969;-89
2024/01/30 14:43:57;;;;;;;;;;;;;;;5.04;45.21;101590.97;4939015;28;19922;-89
2024/01/30 14:46:22;;;;;;;;;;;;;;;4.97;44.73;101583.56;4956347;28;19934;-89
2024/01/30 14:48:48;;;;;;;;;;;;;;;4.93;45.29;101585.53;4939893;28;19974;-88
2024/01/30 14:51:13;;;;;;;;;;;;;;;4.91;45.58;101583.94;4961565;28;19925;-88
2024/01/30 14:53:38;;;;;;;;;;;;;;;4.94;45.66;101581.13;4946771;28;19942;-86
2024/01/30 14:56:04;;;;;;;;;;;;;;;4.96;45.29;101587.13;4973923;28;19918;-88
2024/01/30 14:58:29;;;;;;;;;;;;;;;4.83;45.86;101565.22;4941819;28;20407;-88
2024/01/30 15:00:55;;;;;;;;;;;;;;;4.80;45.07;101579.34;4964512;28;19918;-87
2024/01/30 15:03:20;;;;;;;;;;;;;;;4.78;45.00;101583.81;4962917;28;19926;-88
2024/01/30 15:05:45;;;;;;;;;;;;;;;4.82;45.70;101595.78;4960466;28;19973;-87
2024/01/30 15:08:11;;;;;;;;;;;;;;;4.85;45.68;101592.16;4938749;28;19981;-88
2024/01/30 15:10:36;;;;;;;;;;;;;;;4.83;45.40;101596.63;4941756;28;19919;-88
2024/01/30 15:13:01;;;;;;;;;;;;;;;4.88;45.52;101602.44;4964166;28;20307;-88
2024/01/30 15:15:28;;;;;;;;;;;;;;;4.89;45.18;101591.03;4941815;28;19926;-88
2024/01/30 15:17:53;;;;;;;;;;;;;;;4.91;45.17;101592.63;4958643;28;19918;-87
2024/01/30 15:20:19;;;;;;;;;;;;;;;4.89;45.16;101591.88;4956434;28;20312;-87
2024/01/30 15:22:44;;;;;;;;;;;;;;;4.86;45.35;101602.53;4957562;28;20360;-89
2024/01/30 15:25:10;;;;;;;;;;;;;;;4.80;45.96;101605.50;4957308;28;19928;-87
2024/01/30 15:27:35;;;;;;;;;;;;;;;4.66;45.56;101598.47;4957198;28;19915;-87
2024/01/30 15:30:01;;;;;;;;;;;;;;;4.66;45.50;101602.88;4967193;28;19953;-87
2024/01/30 15:32:26;;;;;;;;;;;;;;;4.66;46.05;101608.09;4957365;28;20319;-87
2024/01/30 15:34:51;;;;;;;;;;;;;;;4.68;46.15;101607.06;4945181;28;19918;-87
2024/01/30 15:37:17;;;;;;;;;;;;;;;4.57;45.66;101600.78;4958600;28;19914;-87
2024/01/30 15:39:42;;;;;;;;;;;;;;;4.55;45.80;101605.25;4955246;28;19910;-86
2024/01/30 15:42:08;;;;;;;;;;;;;;;4.57;45.93;101604.25;4958063;28;19977;-87
2024/01/30 15:44:55;;;;;;;;;;;;;;;4.58;45.69;101610.31;4952659;28;19918;-85
2024/01/30 15:48:12;;;;;;;;;;;;;;;4.53;46.12;101607.13;4985163;28;19926;-84
2024/01/30 15:56:46;;;;;;;;;;;;;;;4.55;45.94;101600.03;4957654;28;19929;-84
2024/01/30 16:02:42;;;;;;;;;;;;;;;4.61;45.93;101615.38;4948773;28;19956;-84
2024/01/30 16:05:35;;;;;;;;;;;;;;;4.58;46.06;101605.94;4945745;29;19927;-85
2024/01/30 16:17:37;;;;;;;;;;;;;;;4.43;46.47;101619.84;4960756;28;19913;-84
2024/01/30 16:29:48;;;;;;;;;;;;;;;4.43;45.95;101609.41;5000065;28;19988;-85
2024/01/30 16:33:17;;;;;;;;;;;;;;;4.36;46.34;101610.69;4998707;28;19913;-85
2024/01/30 16:48:40;;;;;;;;;;;;;;;4.35;46.53;101615.06;5019851;28;19965;-85
2024/01/30 16:54:02;;;;;;;;;;;;;;;4.29;46.75;101633.72;5254078;22;19925;-84
2024/01/30 18:11:25;;;;;;;;;;;;;;;4.10;47.24;101669.66;5079472;23;19910;-86
2024/01/30 18:34:20;;;;;;;;;;;;;;;4.03;46.91;101666.53;5485091;22;19910;-85
2024/01/30 18:37:24;;;;;;;;;;;;;;;4.00;47.40;101669.31;4943957;29;19911;-86
2024/01/30 18:54:48;;;;;;;;;;;;;;;4.13;47.12;101672.09;5022111;28;19933;-86
2024/01/30 19:06:51;;;;;;;;;;;;;;;4.09;46.78;101658.38;4924733;28;19915;-86
2024/01/30 19:18:31;;;;;;;;;;;;;;;4.08;46.84;101658.44;5223528;23;19910;-86
